createdAt,value
2024-04-18T00:12:22.429Z,995.59
2024-04-18T01:56:51.954Z,995.47
2024-04-18T02:56:35.552Z,995.76
2024-04-18T03:58:49.591Z,996.12
2024-04-18T04:59:34.995Z,996.92
2024-04-18T05:28:42.588Z,997.26
2024-04-18T05:57:45.560Z,997.66
2024-04-18T06:26:46.999Z,997.76
2024-04-18T06:55:31.556Z,998.34
2024-04-18T07:24:33.269Z,998.8
2024-04-18T07:53:39.238Z,999.17
2024-04-18T08:22:50.562Z,999.61
2024-04-18T08:51:58.088Z,999.84
2024-04-18T09:20:54.907Z,1000.23
2024-04-18T09:49:59.716Z,1000.63
2024-04-18T10:19:10.391Z,1000.86
2024-04-18T10:48:14.931Z,1001.08
2024-04-18T11:17:08.786Z,1000.94
2024-04-18T11:46:13.303Z,1000.89
2024-04-18T12:15:08.963Z,1000.96
2024-04-18T12:44:08.028Z,1000.95
2024-04-18T13:12:56.359Z,1001.47
2024-04-18T13:42:15.853Z,1001.16
2024-04-18T14:11:17.274Z,1001.31
2024-04-18T14:40:14.358Z,1001.26
2024-04-18T15:09:15.121Z,1001.47
2024-04-18T15:38:20.685Z,1001.47
2024-04-18T16:07:41.048Z,1001.57
2024-04-18T16:37:14.059Z,1001.57
2024-04-18T17:05:25.815Z,1001.79
2024-04-18T17:33:50.297Z,1002.12
2024-04-18T18:02:54.691Z,1002.42
2024-04-18T18:31:43.762Z,1002.64
2024-04-18T19:00:40.698Z,1003.03
2024-04-18T19:58:49.783Z,1003.35
2024-04-18T20:27:54.401Z,1003.45
2024-04-18T20:56:58.399Z,1003.61
2024-04-18T21:26:13.054Z,1003.53
2024-04-18T21:56:13.350Z,1003.47
2024-04-18T22:24:42.581Z,1003.72
2024-04-18T22:53:44.835Z,1003.7
2024-04-18T23:22:41.274Z,1003.64
2024-04-18T23:51:52.318Z,1003.58
